Time;durP1;ratioP1;P1;durP2;ratioP2;P2;SDS_P1;SDS_P2;PMS_P1;PMS_P2;Temp;Humidity;BMP_temperature;BMP_pressure;BME280_temperature;BME280_humidity;BME280_pressure;Samples;Min_cycle;Max_cycle;Signal;HPM_P1;HPM_P2
2023/01/04 00:01:00;;;;;;;1.90;0.98;;;;;;;10.60;76.86;101785.41;5094496;28;20039;-82
2023/01/04 00:03:27;;;;;;;0.20;0.20;;;;;;;10.52;77.27;101773.06;5096917;28;20024;-82
2023/01/04 00:05:55;;;;;;;0.35;0.35;;;;;;;10.55;77.08;101756.28;5105296;28;20052;-81
2023/01/04 00:08:21;;;;;;;0.15;0.15;;;;;;;10.56;77.15;101757.16;5104870;28;20024;-81
2023/01/04 00:10:47;;;;;;;0.10;0.10;;;;;;;10.56;77.30;101755.38;5100311;28;20024;-81
2023/01/04 00:13:13;;;;;;;0.10;0.10;;;;;;;10.58;77.43;101744.78;5103144;28;20032;-82
2023/01/04 00:15:39;;;;;;;0.13;0.13;;;;;;;10.63;76.99;101740.31;5098772;28;20024;-81
2023/01/04 00:18:05;;;;;;;0.20;0.20;;;;;;;10.58;77.34;101743.03;5096251;28;20047;-81
2023/01/04 00:20:32;;;;;;;0.10;0.10;;;;;;;10.58;77.68;101740.38;5097208;28;20042;-81
2023/01/04 00:22:58;;;;;;;0.10;0.10;;;;;;;10.55;77.76;101729.78;5101334;28;20036;-81
2023/01/04 00:25:24;;;;;;;0.10;0.10;;;;;;;10.58;77.93;101740.38;5117019;28;20032;-81
2023/01/04 00:27:51;;;;;;;0.10;0.10;;;;;;;10.61;77.90;101734.16;5119174;28;20035;-81
2023/01/04 00:30:17;;;;;;;0.10;0.10;;;;;;;10.62;77.65;101726.22;5098173;28;20067;-82
2023/01/04 00:32:44;;;;;;;0.20;0.20;;;;;;;10.65;78.29;101733.25;5090289;28;20384;-82
2023/01/04 00:35:11;;;;;;;0.10;0.10;;;;;;;10.72;78.03;101718.22;5098124;28;20124;-82
2023/01/04 00:37:37;;;;;;;0.10;0.10;;;;;;;10.70;77.69;101707.59;5099576;28;20488;-81
2023/01/04 00:40:04;;;;;;;0.10;0.10;;;;;;;10.67;78.46;101692.59;5101573;28;20031;-81
2023/01/04 00:42:30;;;;;;;0.20;0.20;;;;;;;10.68;78.44;101698.81;5103128;28;20402;-82
2023/01/04 00:44:56;;;;;;;0.10;0.10;;;;;;;10.75;78.26;101694.31;5096988;28;20020;-82
2023/01/04 00:47:22;;;;;;;0.10;0.10;;;;;;;10.70;78.69;101696.13;5098718;28;20373;-82
2023/01/04 00:49:48;;;;;;;2.20;1.60;;;;;;;10.72;78.67;101687.28;5096628;28;20056;-82
2023/01/04 00:52:14;;;;;;;0.10;0.10;;;;;;;10.82;78.69;101680.13;5099892;28;20024;-81
2023/01/04 00:54:40;;;;;;;0.38;0.38;;;;;;;10.73;78.59;101681.09;5099135;28;20062;-82
2023/01/04 00:57:07;;;;;;;0.10;0.10;;;;;;;10.81;78.66;101678.38;5098696;28;20024;-81
2023/01/04 00:59:33;;;;;;;0.10;0.10;;;;;;;10.82;78.94;101669.53;5098561;28;20039;-81
2023/01/04 01:01:59;;;;;;;0.10;0.10;;;;;;;10.86;78.74;101652.69;5101199;28;20031;-81
2023/01/04 01:04:26;;;;;;;0.10;0.10;;;;;;;10.82;79.00;101645.69;5099698;28;20031;-81
2023/01/04 01:06:52;;;;;;;0.10;0.10;;;;;;;10.80;78.93;101656.31;5108189;28;20036;-81
2023/01/04 01:09:21;;;;;;;0.30;0.25;;;;;;;10.90;79.03;101648.25;5104125;28;20042;-80
2023/01/04 01:11:48;;;;;;;0.10;0.10;;;;;;;10.93;78.98;101656.16;5102752;28;20028;-81
2023/01/04 01:14:18;;;;;;;0.20;0.20;;;;;;;10.85;79.25;101658.88;5099211;28;20031;-81
2023/01/04 01:16:44;;;;;;;0.00;0.00;;;;;;;10.95;78.69;101650.00;5101816;28;20031;-81
2023/01/04 01:19:11;;;;;;;0.10;0.10;;;;;;;11.07;78.46;101640.16;5087089;28;20024;-81
2023/01/04 01:21:38;;;;;;;0.20;0.20;;;;;;;10.93;79.09;101645.56;5102188;28;20107;-81
2023/01/04 01:24:04;;;;;;;0.20;0.20;;;;;;;11.08;78.58;101647.19;5099071;28;20040;-81
2023/01/04 01:26:31;;;;;;;0.10;0.10;;;;;;;11.14;78.49;101628.56;5101114;28;20491;-81
2023/01/04 01:28:58;;;;;;;0.25;0.25;;;;;;;11.11;78.70;101649.84;5097742;28;20028;-80
2023/01/04 01:31:27;;;;;;;0.20;0.20;;;;;;;11.16;78.73;101650.66;5097944;28;20036;-81
2023/01/04 01:33:54;;;;;;;0.10;0.10;;;;;;;11.20;78.90;101639.13;5101149;28;20035;-81
2023/01/04 01:36:23;;;;;;;0.17;0.17;;;;;;;11.16;79.09;101648.03;5100303;28;20032;-81
2023/01/04 01:38:49;;;;;;;0.10;0.10;;;;;;;11.16;79.18;101648.91;5099999;28;20058;-81
2023/01/04 01:41:23;;;;;;;0.20;0.20;;;;;;;11.29;78.94;101631.09;5102709;28;20020;-80
2023/01/04 01:49:29;;;;;;;0.43;0.43;;;;;;;11.41;78.38;101647.78;5159311;27;20329;-79
2023/01/04 01:51:58;;;;;;;0.10;0.10;;;;;;;11.39;78.50;101628.31;5170468;27;20099;-79
2023/01/04 01:54:31;;;;;;;0.17;0.17;;;;;;;11.30;79.16;101634.63;5176873;27;20022;-80
2023/01/04 01:57:01;;;;;;;0.10;0.10;;;;;;;11.34;79.08;101625.75;5175063;27;20058;-80
2023/01/04 01:59:28;;;;;;;0.90;0.90;;;;;;;11.48;78.92;101622.94;5170862;27;20440;-80
2023/01/04 02:01:55;;;;;;;0.30;0.30;;;;;;;11.48;78.66;101622.94;5148080;27;20035;-80
2023/01/04 02:04:21;;;;;;;0.22;0.22;;;;;;;11.45;78.92;101617.66;5155310;27;20027;-80
2023/01/04 02:06:50;;;;;;;0.20;0.20;;;;;;;11.49;78.59;101625.56;5144721;27;20492;-80
2023/01/04 02:09:18;;;;;;;0.10;0.10;;;;;;;11.51;79.01;101622.03;5160641;27;20113;-80
2023/01/04 02:11:44;;;;;;;0.10;0.10;;;;;;;11.53;78.55;101622.91;5174366;27;20074;-79
2023/01/04 02:14:26;;;;;;;0.10;0.10;;;;;;;11.62;77.97;101628.09;5174083;27;20109;-81
2023/01/04 02:17:25;;;;;;;0.53;0.53;;;;;;;11.61;78.54;101613.94;5169009;27;20024;-80
2023/01/04 02:34:04;;;;;;;0.30;0.30;;;;;;;11.88;78.45;101595.03;5109484;27;20879;-80
2023/01/04 02:36:42;;;;;;;0.20;0.20;;;;;;;11.88;78.28;101617.13;5110995;28;20097;-80
2023/01/04 02:42:06;;;;;;;0.22;0.22;;;;;;;11.92;78.04;101608.22;5070863;28;20451;-80
2023/01/04 02:44:59;;;;;;;0.20;0.20;;;;;;;11.95;77.88;101621.47;5072114;28;20037;-80
2023/01/04 02:58:49;;;;;;;0.20;0.20;;;;;;;12.10;78.29;101601.81;5071994;28;20485;-80
2023/01/04 03:07:10;;;;;;;0.10;0.10;;;;;;;12.01;78.27;101595.75;5145262;27;20127;-80
2023/01/04 03:09:40;;;;;;;0.10;0.10;;;;;;;12.05;78.49;101613.41;5130193;27;20032;-80
2023/01/04 03:12:30;;;;;;;0.13;0.13;;;;;;;12.01;78.72;101587.78;5131303;28;20038;-80
2023/01/04 03:15:03;;;;;;;0.10;0.10;;;;;;;12.04;77.96;101563.88;5110447;28;20025;-80
2023/01/04 03:17:36;;;;;;;0.10;0.10;;;;;;;12.05;78.73;101570.91;5104504;28;20480;-81
2023/01/04 03:20:03;;;;;;;0.10;0.10;;;;;;;12.16;77.92;101562.78;5101550;28;20047;-81
2023/01/04 03:36:57;;;;;;;0.10;0.10;;;;;;;12.24;77.41;101561.75;5083142;28;20061;-80
2023/01/04 03:48:34;;;;;;;0.10;0.10;;;;;;;12.15;78.49;101540.66;5065993;28;20036;-80
2023/01/04 03:53:47;;;;;;;0.10;0.10;;;;;;;12.17;77.92;101533.53;5124061;27;20370;-80
2023/01/04 03:56:15;;;;;;;0.10;0.10;;;;;;;12.27;77.75;101519.22;5107994;28;20027;-81
2023/01/04 03:58:42;;;;;;;0.10;0.10;;;;;;;12.16;78.57;101522.94;5110617;28;20089;-81
2023/01/04 04:01:08;;;;;;;0.10;0.10;;;;;;;12.26;77.70;101522.78;5113673;28;20451;-81
2023/01/04 04:09:06;;;;;;;0.10;0.10;;;;;;;12.24;78.30;101519.25;5112560;28;20092;-82
2023/01/04 04:11:32;;;;;;;0.98;0.90;;;;;;;12.22;78.32;101521.06;5113126;27;20054;-82
2023/01/04 04:13:59;;;;;;;1.42;1.35;;;;;;;12.30;78.18;101503.22;5113531;28;20027;-81
2023/01/04 04:16:26;;;;;;;0.20;0.20;;;;;;;12.32;77.79;101511.16;5112385;28;20028;-81
2023/01/04 04:18:52;;;;;;;0.10;0.10;;;;;;;12.39;77.66;101519.91;5113297;28;20027;-81
2023/01/04 04:21:18;;;;;;;0.10;0.10;;;;;;;12.39;78.10;101496.00;5119642;27;20039;-82
2023/01/04 04:23:44;;;;;;;0.10;0.10;;;;;;;12.40;77.21;101495.06;5112743;28;20043;-81
2023/01/04 04:26:11;;;;;;;0.10;0.10;;;;;;;12.46;77.28;101502.94;5109638;28;20716;-82
2023/01/04 04:28:38;;;;;;;0.10;0.10;;;;;;;12.46;77.12;101487.00;5115008;28;20078;-82
2023/01/04 04:31:04;;;;;;;0.20;0.20;;;;;;;12.51;77.46;101490.47;5111172;28;20030;-83
2023/01/04 04:33:31;;;;;;;0.17;0.17;;;;;;;12.48;77.44;101506.47;5115098;28;20040;-82
2023/01/04 04:35:57;;;;;;;0.25;0.25;;;;;;;12.49;77.28;101497.59;5122658;28;20083;-81
2023/01/04 04:38:23;;;;;;;0.10;0.10;;;;;;;12.54;77.51;101494.84;5116203;28;20028;-81
2023/01/04 04:43:35;;;;;;;0.10;0.10;;;;;;;12.51;78.05;101479.84;5125183;27;20119;-81
2023/01/04 04:46:01;;;;;;;0.10;0.10;;;;;;;12.40;78.63;101487.09;5121248;28;20024;-80
2023/01/04 04:48:28;;;;;;;0.10;0.10;;;;;;;12.42;78.85;101485.31;5134955;28;20016;-80
2023/01/04 04:50:54;;;;;;;0.10;0.10;;;;;;;12.43;79.08;101493.25;5136683;28;20602;-81
2023/01/04 04:53:20;;;;;;;0.10;0.10;;;;;;;12.45;78.82;101494.09;5120178;27;20122;-80
2023/01/04 04:55:49;;;;;;;0.10;0.10;;;;;;;12.33;79.04;101502.28;5118643;28;20031;-81
2023/01/04 04:58:15;;;;;;;0.20;0.20;;;;;;;12.39;79.20;101496.00;5110600;28;20091;-81
2023/01/04 05:00:41;;;;;;;1.00;1.00;;;;;;;12.42;79.25;101485.31;5109495;28;20532;-80
2023/01/04 05:03:07;;;;;;;0.10;0.10;;;;;;;12.34;79.08;101500.53;5108247;28;20028;-80
2023/01/04 05:05:33;;;;;;;0.10;0.10;;;;;;;12.42;79.29;101487.97;5097561;28;20396;-80
2023/01/04 05:07:59;;;;;;;0.10;0.10;;;;;;;12.38;79.51;101473.84;5097242;28;20453;-80
2023/01/04 05:10:25;;;;;;;0.10;0.10;;;;;;;12.36;79.48;101466.81;5097019;28;20094;-80
2023/01/04 05:12:58;;;;;;;0.10;0.10;;;;;;;12.44;79.04;101480.84;5097240;28;20032;-80
2023/01/04 05:15:30;;;;;;;0.10;0.10;;;;;;;12.46;79.22;101457.75;5093810;28;20035;-78
2023/01/04 05:17:56;;;;;;;0.15;0.15;;;;;;;12.38;79.18;101462.34;5098324;28;20119;-77
2023/01/04 05:20:23;;;;;;;0.10;0.10;;;;;;;12.39;79.71;101443.72;5098456;28;20404;-77
2023/01/04 05:22:49;;;;;;;0.10;0.10;;;;;;;12.37;79.64;101457.94;5099611;28;20024;-78
2023/01/04 05:25:15;;;;;;;0.22;0.22;;;;;;;12.43;79.61;101455.16;5104536;28;20035;-78
2023/01/04 05:27:41;;;;;;;0.10;0.10;;;;;;;12.44;79.59;101430.34;5100776;28;20024;-78
2023/01/04 05:31:03;;;;;;;0.10;0.10;;;;;;;12.42;79.66;101437.47;5100221;28;20031;-77
2023/01/04 05:32:58;;;;;;;0.10;0.10;;;;;;;12.40;79.37;101437.50;5104403;28;20032;-78
2023/01/04 05:35:25;;;;;;;0.17;0.17;;;;;;;12.48;79.43;101441.81;5105346;28;20083;-79
2023/01/04 05:37:51;;;;;;;0.10;0.10;;;;;;;12.50;80.04;101429.34;5108608;28;20039;-77
2023/01/04 05:40:17;;;;;;;0.10;0.10;;;;;;;12.50;79.65;101427.59;5103770;28;20024;-77
2023/01/04 05:42:43;;;;;;;0.10;0.10;;;;;;;12.49;80.02;101414.34;5107139;28;20111;-79
2023/01/04 05:45:10;;;;;;;0.10;0.10;;;;;;;12.55;79.50;101404.44;5094712;28;20028;-79
2023/01/04 05:47:36;;;;;;;0.20;0.20;;;;;;;12.59;79.56;101423.88;5099003;28;20363;-79
2023/01/04 05:50:03;;;;;;;0.17;0.17;;;;;;;12.56;79.85;101422.16;5102334;28;20031;-79
2023/01/04 05:52:30;;;;;;;0.10;0.10;;;;;;;12.62;79.28;101406.09;5097656;28;20024;-79
2023/01/04 05:54:56;;;;;;;0.50;0.50;;;;;;;12.55;80.36;101399.13;5095693;28;20039;-79
2023/01/04 05:57:22;;;;;;;0.10;0.10;;;;;;;12.49;79.92;101409.88;5096773;27;20034;-79
2023/01/04 05:59:48;;;;;;;0.98;0.38;;;;;;;12.53;79.53;101406.25;5095064;28;20031;-79
2023/01/04 06:02:18;;;;;;;0.10;0.10;;;;;;;12.55;80.23;101422.19;5099524;28;20031;-79
2023/01/04 06:04:44;;;;;;;0.20;0.20;;;;;;;12.62;79.94;101440.66;5104333;28;20028;-78
2023/01/04 06:07:11;;;;;;;0.10;0.10;;;;;;;12.58;79.63;101427.44;5105199;28;20035;-79
2023/01/04 06:09:37;;;;;;;0.20;0.20;;;;;;;12.49;80.29;101427.63;5100838;28;20050;-80
2023/01/04 06:12:03;;;;;;;0.10;0.10;;;;;;;12.62;79.94;101424.69;5102158;28;20031;-79
2023/01/04 06:14:29;;;;;;;0.52;0.52;;;;;;;12.71;79.14;101438.69;5095770;28;20036;-79
2023/01/04 06:16:55;;;;;;;0.10;0.10;;;;;;;12.69;79.25;101451.16;5099718;28;20032;-79
2023/01/04 06:19:22;;;;;;;1.45;1.25;;;;;;;12.71;79.13;101439.59;5094322;28;20036;-79
2023/01/04 06:21:48;;;;;;;0.15;0.15;;;;;;;12.64;79.65;101429.13;5097755;28;20099;-80
2023/01/04 06:24:14;;;;;;;0.10;0.10;;;;;;;12.77;79.41;101438.56;5101271;27;20073;-78
2023/01/04 06:26:41;;;;;;;0.10;0.10;;;;;;;12.75;79.42;101451.03;5104399;28;20035;-79
2023/01/04 06:29:07;;;;;;;0.10;0.10;;;;;;;12.75;79.26;101427.97;5103262;28;20028;-80
2023/01/04 06:31:33;;;;;;;0.10;0.10;;;;;;;12.76;79.48;101426.19;5104105;28;20024;-79
2023/01/04 06:33:59;;;;;;;0.10;0.10;;;;;;;12.69;79.53;101419.25;5099251;28;20115;-80
2023/01/04 06:36:26;;;;;;;0.10;0.10;;;;;;;12.70;79.45;101429.00;5096957;28;20051;-80
2023/01/04 06:38:55;;;;;;;0.10;0.10;;;;;;;12.71;79.23;101413.00;5095741;28;20028;-80
2023/01/04 06:41:21;;;;;;;0.10;0.10;;;;;;;12.75;79.50;101404.03;5094760;28;20028;-79
2023/01/04 06:43:48;;;;;;;0.95;0.95;;;;;;;12.72;79.15;101408.53;5092996;28;20039;-80
2023/01/04 06:46:14;;;;;;;0.20;0.20;;;;;;;12.70;79.57;101410.38;5101001;28;20020;-78
2023/01/04 06:48:40;;;;;;;0.35;0.35;;;;;;;12.75;79.80;101390.75;5100218;28;20104;-80
2023/01/04 06:51:06;;;;;;;0.20;0.20;;;;;;;12.78;78.88;101397.78;5093345;28;20024;-80
2023/01/04 06:53:32;;;;;;;0.10;0.10;;;;;;;12.74;79.69;101402.28;5094024;28;20032;-80
2023/01/04 06:55:58;;;;;;;0.35;0.35;;;;;;;12.76;79.97;101404.91;5093880;28;20032;-79
2023/01/04 06:58:25;;;;;;;0.10;0.10;;;;;;;12.74;79.90;101388.13;5094755;28;20032;-79
2023/01/04 07:00:52;;;;;;;0.10;0.10;;;;;;;12.85;79.23;101410.06;5097973;28;20034;-79
2023/01/04 07:03:18;;;;;;;0.30;0.30;;;;;;;12.81;79.35;101412.81;5094470;28;20020;-81
2023/01/04 07:05:45;;;;;;;4.18;0.70;;;;;;;12.75;79.50;101403.19;5094134;28;20052;-80
2023/01/04 07:08:12;;;;;;;0.10;0.10;;;;;;;12.76;79.75;101397.84;5094266;28;20031;-80
2023/01/04 07:10:38;;;;;;;0.10;0.10;;;;;;;12.87;79.55;101392.31;5089161;28;20039;-80
2023/01/04 07:13:05;;;;;;;0.30;0.30;;;;;;;12.75;79.62;101397.88;5090596;28;20875;-80
2023/01/04 07:15:31;;;;;;;0.10;0.10;;;;;;;12.86;78.98;101379.00;5092879;28;20524;-80
2023/01/04 07:17:57;;;;;;;0.75;0.60;;;;;;;12.84;79.11;101381.72;5092369;28;20145;-79
2023/01/04 07:20:23;;;;;;;0.10;0.10;;;;;;;12.82;79.42;101366.69;5095529;28;20028;-79
2023/01/04 07:22:49;;;;;;;0.10;0.10;;;;;;;12.77;79.34;101380.09;5107953;28;20028;-79
2023/01/04 07:25:16;;;;;;;0.30;0.30;;;;;;;12.79;79.84;101372.97;5101282;28;20108;-79
2023/01/04 07:27:42;;;;;;;0.20;0.20;;;;;;;12.80;79.58;101380.03;5094330;28;20024;-79
2023/01/04 07:30:09;;;;;;;0.10;0.10;;;;;;;12.76;79.79;101368.59;5093640;28;20036;-80
2023/01/04 07:32:35;;;;;;;0.10;0.10;;;;;;;12.71;80.27;101358.94;5095031;28;20032;-80
2023/01/04 07:35:01;;;;;;;0.65;0.65;;;;;;;12.79;79.72;101364.97;5096480;28;20028;-81
2023/01/04 07:37:27;;;;;;;0.10;0.10;;;;;;;12.68;80.31;101359.88;5097660;28;20521;-81
2023/01/04 07:39:53;;;;;;;0.10;0.10;;;;;;;12.69;79.95;101358.09;5094464;28;20073;-81
2023/01/04 07:42:20;;;;;;;0.10;0.10;;;;;;;12.72;80.40;101366.00;5097803;28;20032;-80
2023/01/04 07:44:46;;;;;;;0.10;0.10;;;;;;;12.77;79.89;101373.00;5094678;28;20035;-80
2023/01/04 07:47:12;;;;;;;0.25;0.25;;;;;;;12.61;80.24;101377.75;5094989;28;20032;-80
2023/01/04 07:49:38;;;;;;;0.20;0.20;;;;;;;12.72;79.91;101376.63;5094018;28;20509;-80
2023/01/04 07:52:04;;;;;;;0.10;0.10;;;;;;;12.77;80.09;101354.38;5094571;28;20378;-80
2023/01/04 07:54:31;;;;;;;0.10;0.10;;;;;;;12.79;79.80;101363.19;5094712;28;20118;-80
2023/01/04 07:56:57;;;;;;;0.10;0.10;;;;;;;12.83;80.31;101368.44;5094757;28;20511;-80
2023/01/04 07:59:23;;;;;;;0.10;0.10;;;;;;;12.74;80.16;101374.84;5093203;28;20035;-80
2023/01/04 08:01:50;;;;;;;0.10;0.10;;;;;;;12.83;79.79;101368.44;5094729;28;20020;-80
2023/01/04 08:04:16;;;;;;;0.10;0.10;;;;;;;12.78;80.51;101360.56;5096069;28;20028;-80
2023/01/04 08:06:45;;;;;;;0.20;0.20;;;;;;;12.82;80.22;101370.22;5100563;28;20039;-79
2023/01/04 08:09:12;;;;;;;0.10;0.10;;;;;;;12.93;79.78;101360.25;5100277;28;20020;-81
2023/01/04 08:11:38;;;;;;;0.10;0.10;;;;;;;12.86;80.00;101371.03;5100189;28;20479;-81
2023/01/04 08:14:04;;;;;;;0.10;0.10;;;;;;;12.90;80.49;101372.75;5094741;28;20028;-80
2023/01/04 08:16:33;;;;;;;0.10;0.10;;;;;;;12.85;80.69;101367.50;5097672;28;20111;-81
2023/01/04 08:19:03;;;;;;;0.10;0.10;;;;;;;12.88;80.46;101366.56;5099092;28;20035;-80
2023/01/04 08:21:31;;;;;;;0.10;0.10;;;;;;;12.89;80.78;101369.19;5099285;28;20035;-80
2023/01/04 08:23:57;;;;;;;0.10;0.10;;;;;;;12.86;80.62;101374.59;5094130;28;20028;-81
2023/01/04 08:26:23;;;;;;;0.10;0.10;;;;;;;12.96;80.17;101380.59;5094702;28;20039;-80
2023/01/04 08:28:49;;;;;;;0.10;0.10;;;;;;;12.91;81.11;101378.03;5092263;28;20088;-80
2023/01/04 08:31:20;;;;;;;0.10;0.10;;;;;;;12.98;80.68;101377.88;5094019;28;20034;-81
2023/01/04 08:33:47;;;;;;;0.10;0.10;;;;;;;13.00;80.28;101384.06;5094506;28;20028;-81
2023/01/04 08:36:19;;;;;;;0.10;0.10;;;;;;;13.05;80.24;101377.72;5093484;28;20027;-80
2023/01/04 08:38:46;;;;;;;;;;;;;;;13.17;80.25;101384.56;5095473;28;20020;-81
2023/01/04 08:41:13;;;;;;;0.10;0.10;;;;;;;13.01;80.68;101377.81;5108910;28;19915;-79
2023/01/04 08:43:39;;;;;;;0.10;0.10;;;;;;;13.05;80.56;101401.66;5112968;28;20020;-79
2023/01/04 08:46:06;;;;;;;0.10;0.10;;;;;;;13.06;80.98;101392.78;5101847;28;20130;-79
2023/01/04 08:48:34;;;;;;;0.10;0.10;;;;;;;13.15;80.64;101399.69;5097803;28;20032;-81
2023/01/04 08:51:02;;;;;;;0.50;0.50;;;;;;;13.11;81.18;101401.53;5097361;28;20042;-79
2023/01/04 08:53:28;;;;;;;0.20;0.20;;;;;;;13.15;81.18;101399.69;5097687;28;20489;-81
2023/01/04 08:55:55;;;;;;;0.10;0.10;;;;;;;13.08;81.37;101403.38;5097311;28;20032;-80
2023/01/04 08:58:22;;;;;;;0.10;0.10;;;;;;;13.21;81.45;101404.88;5096626;28;20028;-81
2023/01/04 09:00:48;;;;;;;0.10;0.10;;;;;;;13.29;80.61;101411.81;5097287;28;20038;-81
2023/01/04 09:03:15;;;;;;;0.17;0.17;;;;;;;13.24;80.81;101428.72;5097294;28;20393;-81
2023/01/04 09:05:41;;;;;;;0.10;0.10;;;;;;;13.29;81.11;101430.44;5100696;28;20034;-81
2023/01/04 09:08:07;;;;;;;0.10;0.10;;;;;;;13.25;81.55;101417.19;5104604;28;20024;-80
2023/01/04 09:10:35;;;;;;;0.10;0.10;;;;;;;13.25;81.27;101422.50;5101208;28;20038;-80
2023/01/04 09:13:01;;;;;;;0.10;0.10;;;;;;;13.31;80.97;101420.63;5101175;28;20032;-81
2023/01/04 09:15:27;;;;;;;0.17;0.17;;;;;;;13.34;80.85;101429.41;5100510;28;20051;-81
2023/01/04 09:17:53;;;;;;;0.10;0.10;;;;;;;13.35;80.98;101414.34;5099245;28;20054;-82
2023/01/04 09:20:19;;;;;;;4.18;1.20;;;;;;;13.43;80.83;101423.03;5097631;28;20047;-81
2023/01/04 09:22:45;;;;;;;0.63;0.63;;;;;;;13.43;80.61;101423.03;5098587;28;20024;-81
2023/01/04 09:25:11;;;;;;;0.10;0.10;;;;;;;13.41;81.17;101432.88;5098042;28;20031;-81
2023/01/04 09:27:38;;;;;;;0.10;0.10;;;;;;;13.38;81.01;101422.28;5095236;28;20088;-82
2023/01/04 09:30:05;;;;;;;0.25;0.25;;;;;;;13.41;81.46;101414.22;5097205;28;20028;-80
2023/01/04 09:32:31;;;;;;;0.57;0.57;;;;;;;13.49;80.91;101414.91;5097956;28;20031;-81
2023/01/04 09:34:57;;;;;;;0.10;0.10;;;;;;;13.49;80.68;101417.56;5098762;28;20036;-82
2023/01/04 09:37:23;;;;;;;0.10;0.10;;;;;;;13.51;80.96;101417.56;5099789;28;20040;-81
2023/01/04 09:39:50;;;;;;;0.22;0.22;;;;;;;13.54;80.68;101421.00;5101412;28;20032;-82
2023/01/04 09:42:39;;;;;;;0.10;0.10;;;;;;;13.53;80.67;101413.06;5097631;28;20024;-82
2023/01/04 09:45:20;;;;;;;0.10;0.10;;;;;;;13.61;80.58;101416.44;5093933;28;20052;-81
2023/01/04 09:48:10;;;;;;;0.10;0.10;;;;;;;13.54;80.62;101429.00;5083456;28;20103;-82
2023/01/04 09:50:52;;;;;;;0.10;0.10;;;;;;;13.64;80.36;101427.00;5097861;28;20048;-82
2023/01/04 09:56:06;;;;;;;0.20;0.20;;;;;;;13.59;80.60;101442.22;5071014;28;20820;-82
2023/01/04 09:58:37;;;;;;;0.10;0.10;;;;;;;13.51;81.02;101444.19;5052325;28;20075;-82
2023/01/04 10:01:09;;;;;;;0.20;0.20;;;;;;;13.58;80.60;101437.78;5054563;28;20025;-81
2023/01/04 10:03:40;;;;;;;0.08;0.08;;;;;;;13.58;80.28;101438.69;5070252;28;20025;-81
2023/01/04 10:06:11;;;;;;;0.10;0.10;;;;;;;13.65;80.68;101435.88;5064108;28;20036;-83
2023/01/04 10:08:39;;;;;;;0.20;0.20;;;;;;;13.58;80.82;101432.47;5055827;28;20025;-80
2023/01/04 10:11:17;;;;;;;0.10;0.10;;;;;;;13.58;80.37;101433.34;5048471;28;20073;-82
2023/01/04 10:19:22;;;;;;;0.10;0.10;;;;;;;13.63;80.35;101425.25;5096822;27;1895591;-83
2023/01/04 10:21:55;;;;;;;0.30;0.30;;;;;;;13.61;80.30;101421.75;5137786;28;20036;-83
2023/01/04 10:24:43;;;;;;;0.90;0.90;;;;;;;13.63;80.67;101427.03;5126880;28;20275;-84
2023/01/04 10:27:35;;;;;;;0.10;0.10;;;;;;;13.63;80.05;101427.03;5123911;28;20027;-83
2023/01/04 10:32:49;;;;;;;0.87;0.87;;;;;;;13.63;79.85;101421.72;5121687;27;1220699;-82
2023/01/04 10:35:21;;;;;;;0.10;0.10;;;;;;;13.62;79.98;101415.53;5136951;27;20035;-83
2023/01/04 10:37:56;;;;;;;0.10;0.10;;;;;;;13.58;80.44;101459.09;5118773;27;20065;-83
2023/01/04 10:40:22;;;;;;;0.03;0.03;;;;;;;13.68;79.76;101428.69;5114049;28;20114;-83
2023/01/04 10:42:58;;;;;;;0.10;0.10;;;;;;;13.65;80.21;101427.88;5115125;28;20070;-82
2023/01/04 10:45:49;;;;;;;0.10;0.10;;;;;;;13.61;80.23;101420.88;5117602;28;20081;-83
2023/01/04 10:51:02;;;;;;;0.10;0.10;;;;;;;13.71;80.21;101406.44;5132152;27;20873;-81
2023/01/04 10:59:01;;;;;;;0.10;0.10;;;;;;;13.72;80.32;101395.75;5112447;27;20399;-81
2023/01/04 11:04:22;;;;;;;0.10;0.10;;;;;;;13.82;79.40;101414.16;5073279;28;20901;-80
2023/01/04 11:07:12;;;;;;;0.45;0.45;;;;;;;13.72;79.54;101398.41;5053591;28;20040;-80
2023/01/04 11:10:01;;;;;;;0.73;0.73;;;;;;;13.71;79.57;101401.13;5052606;28;20048;-81
2023/01/04 11:12:27;;;;;;;0.10;0.10;;;;;;;13.77;79.22;101400.06;5056954;28;20018;-81
2023/01/04 11:14:53;;;;;;;0.10;0.10;;;;;;;13.84;79.21;101383.91;5055406;28;20504;-80
2023/01/04 11:17:22;;;;;;;0.10;0.10;;;;;;;13.82;78.96;101387.50;5043518;28;20048;-80
2023/01/04 11:19:48;;;;;;;0.45;0.45;;;;;;;13.84;78.66;101391.88;5047102;28;20033;-80
2023/01/04 11:22:39;;;;;;;0.10;0.10;;;;;;;14.07;78.52;101377.13;5055231;28;20039;-81
2023/01/04 11:25:11;;;;;;;0.10;0.10;;;;;;;14.05;78.21;101379.81;5053432;28;20068;-80
2023/01/04 11:27:50;;;;;;;0.10;0.10;;;;;;;14.05;77.95;101385.13;5040654;28;20032;-80
2023/01/04 11:33:01;;;;;;;1.27;0.55;;;;;;;14.00;77.47;101384.38;5111829;27;20727;-80
2023/01/04 11:35:50;;;;;;;0.10;0.10;;;;;;;14.15;77.01;101388.44;5103808;28;20056;-80
2023/01/04 11:41:00;;;;;;;0.10;0.10;;;;;;;14.12;76.61;101391.22;5114017;27;20109;-80
2023/01/04 11:43:29;;;;;;;2.17;1.98;;;;;;;13.94;76.26;101447.63;5100751;28;20506;-80
2023/01/04 11:46:02;;;;;;;0.10;0.10;;;;;;;14.18;76.51;101383.06;5094066;28;20032;-80
2023/01/04 11:48:45;;;;;;;0.10;0.10;;;;;;;14.18;75.70;101364.41;5093514;28;20024;-80
2023/01/04 11:59:34;;;;;;;0.10;0.10;;;;;;;14.13;75.49;101376.06;5120504;27;20850;-80
2023/01/04 12:02:20;;;;;;;0.38;0.38;;;;;;;14.15;75.51;101369.78;5107298;27;20028;-80
2023/01/04 12:04:48;;;;;;;1.98;1.85;;;;;;;14.07;75.34;101383.31;5104970;28;20024;-80
2023/01/04 12:09:59;;;;;;;0.10;0.10;;;;;;;14.16;74.50;101363.56;5120612;27;1193867;-83
2023/01/04 12:12:29;;;;;;;0.10;0.10;;;;;;;14.20;74.68;101370.53;5132132;27;20039;-82
2023/01/04 12:14:59;;;;;;;0.10;0.10;;;;;;;14.16;74.34;101381.34;5133420;28;20409;-82
2023/01/04 12:17:36;;;;;;;0.10;0.10;;;;;;;14.15;74.30;101364.47;5121042;27;20028;-81
2023/01/04 12:20:12;;;;;;;0.10;0.10;;;;;;;14.18;74.08;101380.38;5115436;28;20202;-83
2023/01/04 12:22:40;;;;;;;0.10;0.10;;;;;;;14.23;73.82;101383.78;5116401;28;20024;-83
2023/01/04 12:25:29;;;;;;;0.10;0.10;;;;;;;14.30;73.69;101383.63;5119546;28;20104;-82
2023/01/04 12:27:55;;;;;;;0.90;0.90;;;;;;;14.20;73.65;101394.53;5113659;28;20032;-82
2023/01/04 12:30:45;;;;;;;0.10;0.10;;;;;;;14.30;73.22;101383.63;5120870;28;20097;-82
2023/01/04 12:42:25;;;;;;;0.10;0.10;;;;;;;14.42;72.96;101371.75;5111680;27;1192156;-80
2023/01/04 12:52:53;;;;;;;0.10;0.10;;;;;;;14.34;73.31;101366.63;5133652;27;20395;-80
2023/01/04 13:01:09;;;;;;;0.50;0.43;;;;;;;14.33;72.87;101383.53;5120382;27;1180886;-80
2023/01/04 13:03:45;;;;;;;0.10;0.10;;;;;;;14.45;72.76;101371.69;5132788;27;20028;-80
2023/01/04 13:06:12;;;;;;;0.10;0.10;;;;;;;14.43;72.70;101379.72;5122035;28;20039;-80
2023/01/04 13:08:40;;;;;;;0.68;0.43;;;;;;;14.28;72.93;101418.34;5116347;28;20391;-80
2023/01/04 13:11:30;;;;;;;0.10;0.10;;;;;;;14.32;72.55;101376.47;5106193;28;20024;-80
2023/01/04 13:14:20;;;;;;;0.10;0.10;;;;;;;14.31;72.96;101378.25;5094837;28;20032;-80
2023/01/04 13:19:31;;;;;;;0.23;0.23;;;;;;;14.26;72.46;101374.84;5119997;27;1180021;-80
2023/01/04 13:21:57;;;;;;;0.10;0.10;;;;;;;14.18;72.75;101364.41;5140066;28;20042;-79
2023/01/04 13:24:30;;;;;;;0.10;0.10;;;;;;;14.32;72.43;101373.81;5128036;28;20036;-79
2023/01/04 13:27:06;;;;;;;0.20;0.20;;;;;;;14.23;72.67;101367.81;5110847;28;20172;-81
2023/01/04 13:29:34;;;;;;;0.10;0.10;;;;;;;14.22;72.56;101368.72;5113841;28;20073;-81
2023/01/04 13:32:04;;;;;;;0.10;0.10;;;;;;;14.28;72.38;101365.03;5113806;28;20032;-81
2023/01/04 13:34:32;;;;;;;0.10;0.10;;;;;;;14.26;72.16;101376.66;5113273;28;20027;-80
2023/01/04 13:39:41;;;;;;;0.20;0.20;;;;;;;14.17;72.43;101388.44;5105790;27;20718;-80
2023/01/04 13:42:21;;;;;;;0.70;0.70;;;;;;;14.26;72.49;101371.31;5108585;28;20134;-80
2023/01/04 13:45:27;;;;;;;2.00;1.90;;;;;;;14.18;72.16;101393.72;5097709;28;20047;-80
2023/01/04 13:47:57;;;;;;;0.05;0.05;;;;;;;14.21;72.17;101382.97;5079748;28;20040;-80
2023/01/04 13:50:31;;;;;;;0.10;0.10;;;;;;;14.22;72.29;101370.53;5075991;28;20077;-80
2023/01/04 13:52:57;;;;;;;0.10;0.10;;;;;;;14.30;71.97;101372.97;5074018;28;20250;-80
2023/01/04 13:55:27;;;;;;;0.10;0.10;;;;;;;14.36;71.68;101365.66;5087016;28;20075;-80